createdAt,value
2022-12-12T00:00:24.356Z,0.77
2022-12-12T00:01:24.366Z,0.77
2022-12-12T00:02:24.458Z,0.77
2022-12-12T00:03:24.480Z,0.78
2022-12-12T00:04:24.304Z,0.81
2022-12-12T00:05:24.292Z,0.78
2022-12-12T00:06:24.286Z,0.77
2022-12-12T00:07:24.281Z,0.81
2022-12-12T00:08:24.359Z,0.78
2022-12-12T00:09:24.244Z,0.78
2022-12-12T00:10:24.235Z,0.81
2022-12-12T00:11:24.212Z,0.82
2022-12-12T00:12:24.213Z,0.84
2022-12-12T00:13:24.243Z,0.84
2022-12-12T00:14:24.186Z,0.84
2022-12-12T00:15:24.161Z,0.81
2022-12-12T00:16:24.240Z,0.77
2022-12-12T00:17:24.161Z,0.74
2022-12-12T00:18:24.123Z,0.74
2022-12-12T00:19:24.103Z,0.74
2022-12-12T00:20:24.235Z,0.74
2022-12-12T00:21:24.073Z,0.74
2022-12-12T00:22:24.093Z,0.74
2022-12-12T00:23:24.061Z,0.71
2022-12-12T00:24:24.053Z,0.73
2022-12-12T00:25:24.093Z,0.73
2022-12-12T00:26:24.023Z,0.70
2022-12-12T00:27:24.022Z,0.67
2022-12-12T00:28:23.997Z,0.63
2022-12-12T00:29:23.992Z,0.58
2022-12-12T00:30:23.972Z,0.55
2022-12-12T00:31:23.991Z,0.51
2022-12-12T00:32:23.980Z,0.49
2022-12-12T00:33:23.932Z,0.45
2022-12-12T00:34:23.921Z,0.42
2022-12-12T00:35:23.915Z,0.42
2022-12-12T00:36:23.892Z,0.40
2022-12-12T00:37:24.012Z,0.42
2022-12-12T00:38:23.862Z,0.44
2022-12-12T00:39:23.856Z,0.47
2022-12-12T00:40:23.841Z,0.47
2022-12-12T00:41:23.822Z,0.47
2022-12-12T00:42:23.831Z,0.47
2022-12-12T00:43:23.803Z,0.47
2022-12-12T00:44:23.832Z,0.45
2022-12-12T00:45:30.956Z,0.42
2022-12-12T00:46:23.830Z,0.45
2022-12-12T00:47:23.766Z,0.45
2022-12-12T00:48:23.746Z,0.47
2022-12-12T00:49:23.725Z,0.49
2022-12-12T00:50:23.712Z,0.49
2022-12-12T00:51:23.707Z,0.55
2022-12-12T00:52:23.704Z,0.56
2022-12-12T00:53:23.665Z,0.58
2022-12-12T00:54:23.666Z,0.59
2022-12-12T00:55:23.653Z,0.59
2022-12-12T00:56:23.624Z,0.59
2022-12-12T00:57:23.634Z,0.55
2022-12-12T00:58:23.616Z,0.55
2022-12-12T00:59:23.594Z,0.56
2022-12-12T01:00:23.584Z,0.56
2022-12-12T01:01:23.618Z,0.58
2022-12-12T01:02:27.967Z,0.58
2022-12-12T01:03:23.559Z,0.59
2022-12-12T01:04:23.564Z,0.59
2022-12-12T01:05:23.541Z,0.58
2022-12-12T01:06:23.519Z,0.56
2022-12-12T01:07:23.514Z,0.58
2022-12-12T01:08:23.492Z,0.56
2022-12-12T01:09:23.474Z,0.56
2022-12-12T01:10:23.463Z,0.55
2022-12-12T01:11:23.442Z,0.52
2022-12-12T01:12:23.453Z,0.58
2022-12-12T01:13:23.424Z,0.56
2022-12-12T01:14:23.405Z,0.59
2022-12-12T01:15:23.393Z,0.61
2022-12-12T01:16:23.595Z,0.66
2022-12-12T01:17:23.391Z,0.64
2022-12-12T01:18:23.362Z,0.63
2022-12-12T01:19:23.342Z,0.64
2022-12-12T01:20:23.347Z,0.64
2022-12-12T01:21:23.311Z,0.67
2022-12-12T01:22:23.302Z,0.63
2022-12-12T01:23:23.313Z,0.63
2022-12-12T01:24:23.283Z,0.63
2022-12-12T01:25:23.262Z,0.64
2022-12-12T01:26:23.254Z,0.66
2022-12-12T01:27:23.235Z,0.66
2022-12-12T01:28:23.242Z,0.66
2022-12-12T01:29:23.212Z,0.67
2022-12-12T01:30:23.209Z,0.68
2022-12-12T01:31:23.242Z,0.70
2022-12-12T01:32:23.173Z,0.71
2022-12-12T01:33:23.186Z,0.70
2022-12-12T01:34:23.153Z,0.71
2022-12-12T01:35:23.132Z,0.73
2022-12-12T01:36:23.134Z,0.71
2022-12-12T01:37:23.115Z,0.74
2022-12-12T01:38:23.122Z,0.76
2022-12-12T01:39:23.081Z,0.77
2022-12-12T01:40:23.071Z,0.77
2022-12-12T01:41:23.077Z,0.77
2022-12-12T01:42:23.055Z,0.76
2022-12-12T01:43:23.052Z,0.77
2022-12-12T01:44:23.029Z,0.76
2022-12-12T01:45:23.015Z,0.77
2022-12-12T01:46:23.122Z,0.74
2022-12-12T01:47:22.980Z,0.73
2022-12-12T01:48:22.991Z,0.73
2022-12-12T01:49:22.952Z,0.74
2022-12-12T01:50:22.952Z,0.74
2022-12-12T01:51:22.930Z,0.74
2022-12-12T01:52:22.923Z,0.76
2022-12-12T01:53:22.921Z,0.76
2022-12-12T01:54:22.908Z,0.76
2022-12-12T01:55:22.884Z,0.76
2022-12-12T01:56:22.879Z,0.77
2022-12-12T01:57:22.854Z,0.74
2022-12-12T01:58:22.860Z,0.71
2022-12-12T01:59:22.850Z,0.73
2022-12-12T02:00:22.834Z,0.67
2022-12-12T02:01:22.800Z,0.67
2022-12-12T02:02:22.862Z,0.64
2022-12-12T02:03:22.804Z,0.61
2022-12-12T02:04:22.769Z,0.55
2022-12-12T02:05:22.749Z,0.52
2022-12-12T02:06:22.747Z,0.51
2022-12-12T02:07:22.720Z,0.52
2022-12-12T02:08:22.776Z,0.52
2022-12-12T02:09:22.700Z,0.55
2022-12-12T02:10:22.695Z,0.56
2022-12-12T02:11:22.676Z,0.56
2022-12-12T02:12:22.681Z,0.55
2022-12-12T02:13:22.669Z,0.56
2022-12-12T02:14:22.639Z,0.56
2022-12-12T02:15:22.636Z,0.56
2022-12-12T02:16:22.672Z,0.58
2022-12-12T02:17:22.610Z,0.58
2022-12-12T02:18:22.609Z,0.61
2022-12-12T02:19:22.581Z,0.63
2022-12-12T02:20:22.563Z,0.63
2022-12-12T02:21:22.561Z,0.61
2022-12-12T02:22:22.535Z,0.56
2022-12-12T02:23:22.547Z,0.56
2022-12-12T02:24:25.942Z,0.52
2022-12-12T02:25:22.507Z,0.52
2022-12-12T02:26:22.485Z,0.52
2022-12-12T02:27:22.476Z,0.51
2022-12-12T02:28:22.478Z,0.51
2022-12-12T02:29:22.457Z,0.49
2022-12-12T02:30:22.438Z,0.49
2022-12-12T02:31:22.493Z,0.51
2022-12-12T02:32:22.417Z,0.51
2022-12-12T02:33:22.417Z,0.52
2022-12-12T02:34:22.388Z,0.52
2022-12-12T02:35:22.381Z,0.52
2022-12-12T02:36:22.370Z,0.52
2022-12-12T02:37:22.358Z,0.55
2022-12-12T02:38:22.360Z,0.56
2022-12-12T02:39:22.338Z,0.58
2022-12-12T02:40:22.319Z,0.56
2022-12-12T02:41:22.296Z,0.56
2022-12-12T02:42:22.290Z,0.56
2022-12-12T02:43:22.277Z,0.58
2022-12-12T02:44:22.288Z,0.58
2022-12-12T02:45:22.267Z,0.56
2022-12-12T02:46:22.263Z,0.58
2022-12-12T02:47:22.227Z,0.59
2022-12-12T02:48:22.227Z,0.56
2022-12-12T02:49:22.214Z,0.56
2022-12-12T02:50:22.187Z,0.55
2022-12-12T02:51:22.184Z,0.51
2022-12-12T02:52:22.166Z,0.51
2022-12-12T02:53:22.135Z,0.52
2022-12-12T02:54:22.167Z,0.52
2022-12-12T02:55:22.123Z,0.55
2022-12-12T02:56:22.106Z,0.58
2022-12-12T02:57:22.096Z,0.59
2022-12-12T02:58:22.095Z,0.58
2022-12-12T02:59:22.083Z,0.61
2022-12-12T03:00:22.057Z,0.64
2022-12-12T03:01:22.050Z,0.64
2022-12-12T03:02:22.123Z,0.63
2022-12-12T03:03:22.031Z,0.63
2022-12-12T03:04:22.034Z,0.63
2022-12-12T03:05:21.995Z,0.64
2022-12-12T03:06:21.986Z,0.63
2022-12-12T03:07:21.989Z,0.66
2022-12-12T03:08:22.011Z,0.66
2022-12-12T03:09:21.954Z,0.67
2022-12-12T03:10:21.935Z,0.67
2022-12-12T03:11:21.916Z,0.68
2022-12-12T03:12:21.921Z,0.68
2022-12-12T03:13:21.893Z,0.70
2022-12-12T03:14:21.905Z,0.68
2022-12-12T03:15:21.864Z,0.68
2022-12-12T03:16:21.946Z,0.68
2022-12-12T03:17:21.871Z,0.67
2022-12-12T03:18:21.827Z,0.70
2022-12-12T03:19:21.834Z,0.70
2022-12-12T03:20:21.822Z,0.71
2022-12-12T03:21:21.791Z,0.73
2022-12-12T03:22:21.774Z,0.71
2022-12-12T03:23:21.775Z,0.70
2022-12-12T03:24:21.763Z,0.68
2022-12-12T03:25:21.773Z,0.68
2022-12-12T03:26:21.723Z,0.68
2022-12-12T03:27:21.713Z,0.67
2022-12-12T03:28:21.715Z,0.67
2022-12-12T03:29:21.688Z,0.70
2022-12-12T03:30:21.701Z,0.73
2022-12-12T03:31:21.693Z,0.74
2022-12-12T03:32:21.652Z,0.71
2022-12-12T03:33:21.634Z,0.71
2022-12-12T03:34:21.623Z,0.71
2022-12-12T03:35:21.622Z,0.70
2022-12-12T03:36:21.599Z,0.68
2022-12-12T03:37:21.582Z,0.70
2022-12-12T03:38:21.578Z,0.71
2022-12-12T03:39:21.561Z,0.68
2022-12-12T03:40:21.571Z,0.70
2022-12-12T03:41:21.544Z,0.71
2022-12-12T03:42:21.531Z,0.71
2022-12-12T03:43:21.506Z,0.70
2022-12-12T03:44:21.500Z,0.70
2022-12-12T03:45:21.506Z,0.67
2022-12-12T03:46:21.481Z,0.66
2022-12-12T03:47:21.452Z,0.63
2022-12-12T03:48:21.460Z,0.61
2022-12-12T03:49:21.449Z,0.59
2022-12-12T03:50:21.452Z,0.58
2022-12-12T03:51:21.401Z,0.61
2022-12-12T03:52:21.404Z,0.59
2022-12-12T03:53:21.392Z,0.61
2022-12-12T03:54:21.383Z,0.59
2022-12-12T03:55:21.382Z,0.58
2022-12-12T03:56:21.353Z,0.59
2022-12-12T03:57:21.334Z,0.59
2022-12-12T03:58:21.312Z,0.66
2022-12-12T03:59:25.733Z,0.67
2022-12-12T04:00:22.310Z,0.68
2022-12-12T04:01:21.432Z,0.67
2022-12-12T04:02:21.306Z,0.67
2022-12-12T04:03:21.241Z,0.64
2022-12-12T04:04:21.242Z,0.64
2022-12-12T04:05:21.240Z,0.63
2022-12-12T04:06:21.219Z,0.63
2022-12-12T04:07:21.203Z,0.61
2022-12-12T04:08:21.308Z,0.56
2022-12-12T04:09:21.168Z,0.55
2022-12-12T04:10:21.192Z,0.56
2022-12-12T04:11:21.149Z,0.56
2022-12-12T04:12:21.139Z,0.58
2022-12-12T04:13:21.120Z,0.59
2022-12-12T04:14:21.127Z,0.59
2022-12-12T04:15:21.122Z,0.59
2022-12-12T04:16:21.129Z,0.56
2022-12-12T04:17:21.077Z,0.52
2022-12-12T04:18:21.071Z,0.51
2022-12-12T04:19:21.051Z,0.51
2022-12-12T04:20:21.066Z,0.55
2022-12-12T04:21:21.047Z,0.56
2022-12-12T04:22:27.048Z,0.59
2022-12-12T04:23:22.000Z,0.61
2022-12-12T04:24:20.988Z,0.66
2022-12-12T04:25:20.968Z,0.67
2022-12-12T04:26:21.037Z,0.70
2022-12-12T04:27:20.948Z,0.71
2022-12-12T04:28:20.942Z,0.74
2022-12-12T04:29:20.931Z,0.74
2022-12-12T04:30:20.908Z,0.71
2022-12-12T04:31:21.023Z,0.71
2022-12-12T04:32:20.890Z,0.68
2022-12-12T04:33:20.877Z,0.66
2022-12-12T04:34:20.858Z,0.66
2022-12-12T04:35:20.847Z,0.61
2022-12-12T04:36:20.848Z,0.59
2022-12-12T04:37:20.817Z,0.58
2022-12-12T04:38:20.810Z,0.55
2022-12-12T04:39:20.816Z,0.52
2022-12-12T04:40:20.778Z,0.52
2022-12-12T04:41:20.781Z,0.52
2022-12-12T04:42:20.767Z,0.51
2022-12-12T04:43:20.740Z,0.49
2022-12-12T04:44:20.729Z,0.49
2022-12-12T04:45:20.822Z,0.52
2022-12-12T04:46:20.764Z,0.55
2022-12-12T04:47:20.697Z,0.59
2022-12-12T04:48:20.687Z,0.63
2022-12-12T04:49:20.665Z,0.64
2022-12-12T04:50:20.659Z,0.67
2022-12-12T04:51:20.658Z,0.66
2022-12-12T04:52:20.630Z,0.63
2022-12-12T04:53:20.617Z,0.63
2022-12-12T04:54:20.609Z,0.58
2022-12-12T04:55:20.586Z,0.56
2022-12-12T04:56:20.612Z,0.56
2022-12-12T04:57:20.568Z,0.56
2022-12-12T04:58:20.546Z,0.56
2022-12-12T04:59:20.536Z,0.56
2022-12-12T05:00:20.526Z,0.59
2022-12-12T05:01:20.586Z,0.61
2022-12-12T05:02:20.549Z,0.61
2022-12-12T05:03:20.487Z,0.63
2022-12-12T05:04:20.506Z,0.63
2022-12-12T05:05:20.448Z,0.61
2022-12-12T05:06:20.467Z,0.63
2022-12-12T05:07:20.433Z,0.63
2022-12-12T05:08:20.499Z,0.63
2022-12-12T05:09:20.417Z,0.63
2022-12-12T05:10:20.406Z,0.64
2022-12-12T05:11:20.455Z,0.66
2022-12-12T05:12:20.376Z,0.64
2022-12-12T05:13:20.356Z,0.66
2022-12-12T05:14:20.347Z,0.64
2022-12-12T05:15:20.365Z,0.64
2022-12-12T05:16:20.417Z,0.64
2022-12-12T05:17:20.306Z,0.66
2022-12-12T05:18:20.298Z,0.68
2022-12-12T05:19:20.287Z,0.67
2022-12-12T05:20:20.275Z,0.68
2022-12-12T05:21:20.274Z,0.70
2022-12-12T05:22:20.244Z,0.68
2022-12-12T05:23:20.235Z,0.66
2022-12-12T05:24:20.214Z,0.66
2022-12-12T05:25:20.203Z,0.67
2022-12-12T05:26:20.204Z,0.66
2022-12-12T05:27:20.172Z,0.64
2022-12-12T05:28:20.165Z,0.61
2022-12-12T05:29:20.154Z,0.58
2022-12-12T05:30:20.134Z,0.55
2022-12-12T05:31:20.145Z,0.56
2022-12-12T05:32:20.113Z,0.55
2022-12-12T05:33:20.103Z,0.58
2022-12-12T05:34:20.093Z,0.59
2022-12-12T05:35:20.130Z,0.61
2022-12-12T05:36:20.093Z,0.63
2022-12-12T05:37:20.043Z,0.63
2022-12-12T05:38:20.043Z,0.63
2022-12-12T05:39:20.022Z,0.64
2022-12-12T05:40:20.007Z,0.66
2022-12-12T05:41:20.004Z,0.67
2022-12-12T05:42:20.003Z,0.70
2022-12-12T05:43:19.972Z,0.74
2022-12-12T05:44:19.964Z,0.76
2022-12-12T05:45:19.944Z,0.76
2022-12-12T05:46:20.011Z,0.74
2022-12-12T05:47:19.944Z,0.73
2022-12-12T05:48:24.280Z,0.70
2022-12-12T05:49:19.910Z,0.67
2022-12-12T05:50:19.889Z,0.67
2022-12-12T05:51:19.843Z,0.66
2022-12-12T05:52:19.882Z,0.66
2022-12-12T05:53:19.843Z,0.67
2022-12-12T05:54:19.840Z,0.64
2022-12-12T05:55:19.821Z,0.64
2022-12-12T05:56:19.812Z,0.61
2022-12-12T05:57:19.811Z,0.59
2022-12-12T05:58:19.790Z,0.56
2022-12-12T05:59:19.811Z,0.55
2022-12-12T06:00:19.759Z,0.55
2022-12-12T06:01:19.742Z,0.51
2022-12-12T06:02:19.790Z,0.48
2022-12-12T06:03:19.721Z,0.47
2022-12-12T06:04:19.796Z,0.45
2022-12-12T06:05:19.697Z,0.42
2022-12-12T06:06:19.691Z,0.44
2022-12-12T06:07:19.684Z,0.40
2022-12-12T06:08:24.763Z,0.39
2022-12-12T06:09:20.649Z,0.39
2022-12-12T06:10:19.643Z,0.39
2022-12-12T06:11:19.612Z,0.37
2022-12-12T06:12:19.621Z,0.34
2022-12-12T06:13:19.601Z,0.70
2022-12-12T06:14:19.591Z,1.67
2022-12-12T06:15:19.624Z,2.64
2022-12-12T06:16:19.604Z,3.37
2022-12-12T06:17:19.552Z,3.77
2022-12-12T06:18:19.533Z,3.85
2022-12-12T06:19:19.512Z,3.89
2022-12-12T06:20:19.511Z,3.92
2022-12-12T06:21:19.481Z,3.94
2022-12-12T06:22:19.497Z,3.40
2022-12-12T06:23:19.468Z,2.90
2022-12-12T06:24:19.458Z,2.52
2022-12-12T06:25:19.442Z,2.22
2022-12-12T06:26:19.429Z,1.93
2022-12-12T06:27:19.420Z,1.68
2022-12-12T06:28:19.401Z,1.49
2022-12-12T06:29:19.415Z,1.32
2022-12-12T06:30:19.370Z,1.22
2022-12-12T06:31:19.431Z,1.13
2022-12-12T06:32:19.363Z,1.06
2022-12-12T06:33:19.347Z,1.00
2022-12-12T06:34:19.319Z,0.95
2022-12-12T06:35:19.307Z,0.85
2022-12-12T06:36:19.300Z,0.78
2022-12-12T06:37:19.339Z,0.71
2022-12-12T06:38:19.276Z,0.68
2022-12-12T06:39:19.258Z,0.67
2022-12-12T06:40:19.239Z,0.64
2022-12-12T06:41:19.239Z,0.63
2022-12-12T06:42:19.230Z,0.63
2022-12-12T06:43:19.229Z,0.61
2022-12-12T06:44:19.200Z,0.61
2022-12-12T06:45:19.188Z,0.61
2022-12-12T06:46:19.241Z,0.58
2022-12-12T06:47:26.316Z,0.52
2022-12-12T06:48:19.145Z,0.55
2022-12-12T06:49:19.138Z,0.56
2022-12-12T06:50:23.619Z,0.52
2022-12-12T06:51:19.101Z,0.52
2022-12-12T06:52:19.080Z,0.55
2022-12-12T06:53:19.101Z,0.55
2022-12-12T06:54:19.061Z,0.56
2022-12-12T06:55:19.060Z,0.58
2022-12-12T06:56:19.041Z,0.58
2022-12-12T06:57:19.031Z,0.56
2022-12-12T06:58:19.031Z,0.52
2022-12-12T06:59:19.002Z,0.51
2022-12-12T07:00:19.001Z,0.49
2022-12-12T07:01:19.073Z,0.45
2022-12-12T07:02:20.444Z,0.48
2022-12-12T07:03:19.036Z,0.48
2022-12-12T07:04:18.950Z,0.48
2022-12-12T07:05:18.931Z,0.51
2022-12-12T07:06:18.911Z,0.52
2022-12-12T07:07:18.901Z,0.55
2022-12-12T07:08:18.954Z,0.58
2022-12-12T07:09:18.880Z,0.58
2022-12-12T07:10:21.464Z,0.52
2022-12-12T07:11:18.862Z,0.55
2022-12-12T07:12:18.839Z,0.55
2022-12-12T07:13:18.854Z,0.51
2022-12-12T07:14:18.814Z,0.55
2022-12-12T07:15:18.812Z,0.52
2022-12-12T07:16:18.847Z,0.51
2022-12-12T07:17:18.767Z,0.49
2022-12-12T07:18:18.797Z,0.48
2022-12-12T07:19:18.747Z,0.47
2022-12-12T07:20:18.729Z,0.48
2022-12-12T07:21:18.731Z,0.48
2022-12-12T07:22:18.701Z,0.48
2022-12-12T07:23:18.709Z,0.47
2022-12-12T07:24:18.681Z,0.42
2022-12-12T07:25:18.678Z,0.42
2022-12-12T07:26:18.649Z,0.39
2022-12-12T07:27:21.831Z,0.40
2022-12-12T07:28:18.648Z,0.40
2022-12-12T07:29:18.629Z,0.40
2022-12-12T07:30:18.599Z,0.40
2022-12-12T07:31:18.692Z,0.39
2022-12-12T07:32:18.569Z,0.37
2022-12-12T07:33:18.591Z,0.37
2022-12-12T07:34:18.557Z,0.37
2022-12-12T07:35:18.547Z,0.37
2022-12-12T07:36:18.526Z,0.36
2022-12-12T07:37:18.517Z,0.34
2022-12-12T07:38:18.507Z,0.34
2022-12-12T07:39:20.981Z,0.36
2022-12-12T07:40:18.479Z,0.39
2022-12-12T07:41:18.471Z,0.42
2022-12-12T07:42:18.468Z,0.47
2022-12-12T07:43:18.453Z,0.48
2022-12-12T07:44:18.449Z,0.47
2022-12-12T07:45:18.857Z,0.45
2022-12-12T07:46:18.498Z,0.45
2022-12-12T07:47:18.405Z,0.44
2022-12-12T07:48:18.380Z,0.40
2022-12-12T07:49:18.390Z,0.42
2022-12-12T07:50:18.350Z,0.40
2022-12-12T07:51:18.338Z,0.37
2022-12-12T07:52:18.343Z,0.36
2022-12-12T07:53:18.319Z,0.36
2022-12-12T07:54:18.328Z,0.36
2022-12-12T07:55:18.307Z,0.37
2022-12-12T07:56:18.303Z,0.40
2022-12-12T07:57:18.258Z,0.44
2022-12-12T07:58:18.235Z,0.45
2022-12-12T07:59:18.237Z,0.48
2022-12-12T08:00:18.223Z,0.47
2022-12-12T08:01:18.226Z,0.45
2022-12-12T08:02:18.252Z,0.45
2022-12-12T08:03:18.186Z,0.40
2022-12-12T08:04:18.219Z,0.42
2022-12-12T08:05:18.268Z,0.39
2022-12-12T08:06:18.159Z,0.36
2022-12-12T08:07:18.133Z,0.36
2022-12-12T08:08:18.165Z,0.36
2022-12-12T08:09:18.105Z,0.37
2022-12-12T08:10:18.149Z,0.36
2022-12-12T08:11:18.109Z,0.36
2022-12-12T08:12:18.054Z,0.36
2022-12-12T08:13:18.045Z,0.34
2022-12-12T08:14:18.048Z,0.37
2022-12-12T08:15:18.035Z,0.36
2022-12-12T08:16:18.071Z,0.36
2022-12-12T08:17:18.013Z,0.33
2022-12-12T08:18:17.993Z,0.36
2022-12-12T08:19:17.986Z,0.34
2022-12-12T08:20:17.963Z,0.36
2022-12-12T08:21:24.849Z,0.33
2022-12-12T08:22:18.957Z,0.36
2022-12-12T08:23:17.925Z,0.34
2022-12-12T08:24:17.963Z,0.36
2022-12-12T08:25:17.927Z,0.33
2022-12-12T08:26:17.884Z,0.34
2022-12-12T08:27:17.894Z,0.39
2022-12-12T08:28:17.863Z,0.39
2022-12-12T08:29:17.854Z,0.44
2022-12-12T08:30:17.835Z,0.48
2022-12-12T08:31:17.919Z,0.52
2022-12-12T08:32:17.823Z,0.52
2022-12-12T08:33:17.810Z,0.58
2022-12-12T08:34:17.781Z,0.58
2022-12-12T08:35:17.781Z,0.61
2022-12-12T08:36:17.766Z,0.64
2022-12-12T08:37:17.767Z,0.67
2022-12-12T08:38:17.735Z,0.70
2022-12-12T08:39:17.733Z,0.74
2022-12-12T08:40:17.703Z,0.76
2022-12-12T08:41:17.694Z,0.82
2022-12-12T08:42:17.703Z,0.82
2022-12-12T08:43:17.673Z,0.84
2022-12-12T08:44:17.654Z,0.88
2022-12-12T08:45:17.643Z,0.89
2022-12-12T08:46:18.482Z,0.89
2022-12-12T08:47:17.637Z,0.89
2022-12-12T08:48:17.603Z,0.94
2022-12-12T08:49:17.593Z,0.95
2022-12-12T08:50:17.587Z,0.99
2022-12-12T08:51:17.615Z,0.99
2022-12-12T08:52:17.572Z,1.00
2022-12-12T08:53:17.553Z,1.00
2022-12-12T08:54:17.530Z,0.94
2022-12-12T08:55:17.512Z,0.92
2022-12-12T08:56:17.509Z,0.91
2022-12-12T08:57:21.373Z,0.89
2022-12-12T08:58:18.471Z,0.91
2022-12-12T08:59:17.484Z,0.89
2022-12-12T09:00:17.461Z,0.91
2022-12-12T09:01:17.530Z,0.94
2022-12-12T09:02:17.568Z,0.95
2022-12-12T09:03:17.411Z,0.95
2022-12-12T09:04:17.448Z,0.99
2022-12-12T09:05:17.382Z,1.00
2022-12-12T09:06:17.381Z,1.02
2022-12-12T09:07:17.382Z,1.04
2022-12-12T09:08:17.410Z,1.06
2022-12-12T09:09:17.348Z,1.07
2022-12-12T09:10:17.333Z,1.09
2022-12-12T09:11:17.309Z,1.13
2022-12-12T09:12:17.307Z,1.13
2022-12-12T09:13:17.278Z,1.13
2022-12-12T09:14:17.268Z,1.13
2022-12-12T09:15:17.269Z,1.13
2022-12-12T09:16:17.301Z,1.10
2022-12-12T09:17:17.259Z,1.09
2022-12-12T09:18:17.219Z,1.09
2022-12-12T09:19:17.219Z,1.12
2022-12-12T09:20:17.189Z,1.13
2022-12-12T09:21:17.185Z,1.14
2022-12-12T09:22:17.159Z,1.14
2022-12-12T09:23:17.172Z,1.16
2022-12-12T09:24:17.152Z,1.20
2022-12-12T09:25:17.137Z,1.20
2022-12-12T09:26:17.109Z,1.18
2022-12-12T09:27:17.107Z,1.20
2022-12-12T09:28:17.103Z,1.21
2022-12-12T09:29:17.088Z,1.21
2022-12-12T09:30:17.060Z,1.22
2022-12-12T09:31:17.117Z,1.22
2022-12-12T09:32:22.818Z,1.24
2022-12-12T09:33:18.039Z,1.25
2022-12-12T09:34:17.009Z,1.28
2022-12-12T09:35:17.009Z,1.28
2022-12-12T09:36:16.971Z,1.31
2022-12-12T09:37:16.970Z,1.34
2022-12-12T09:38:16.981Z,1.32
2022-12-12T09:39:16.948Z,1.36
2022-12-12T09:40:16.937Z,1.34
2022-12-12T09:41:16.925Z,1.34
2022-12-12T09:42:16.917Z,1.32
2022-12-12T09:43:16.920Z,1.28
2022-12-12T09:44:16.887Z,1.24
2022-12-12T09:45:16.879Z,1.25
2022-12-12T09:46:16.928Z,1.25
2022-12-12T09:47:16.853Z,1.27
2022-12-12T09:48:16.849Z,1.24
2022-12-12T09:49:16.833Z,1.25
2022-12-12T09:50:16.808Z,1.25
2022-12-12T09:51:16.808Z,1.28
2022-12-12T09:52:16.777Z,1.30
2022-12-12T09:53:16.787Z,1.30
2022-12-12T09:54:16.765Z,1.32
2022-12-12T09:55:16.748Z,1.31
2022-12-12T09:56:16.741Z,1.32
2022-12-12T09:57:16.731Z,1.34
2022-12-12T09:58:16.719Z,1.36
2022-12-12T09:59:16.702Z,1.39
2022-12-12T10:00:17.010Z,1.40
2022-12-12T10:01:16.695Z,1.40
2022-12-12T10:02:16.740Z,1.42
2022-12-12T10:03:16.672Z,1.42
2022-12-12T10:04:16.638Z,1.42
2022-12-12T10:05:16.628Z,1.43
2022-12-12T10:07:17.608Z,1.43
2022-12-12T10:08:16.660Z,1.43
2022-12-12T10:09:16.574Z,1.43
2022-12-12T10:10:16.662Z,1.45
2022-12-12T10:11:16.548Z,1.48
2022-12-12T10:12:16.525Z,1.45
2022-12-12T10:13:16.519Z,1.43
2022-12-12T10:14:16.550Z,1.43
2022-12-12T10:15:16.510Z,1.43
2022-12-12T10:16:16.534Z,1.45
2022-12-12T10:17:16.470Z,1.45
2022-12-12T10:18:16.448Z,1.45
2022-12-12T10:19:16.458Z,1.50
2022-12-12T10:20:16.604Z,1.50
2022-12-12T10:21:16.418Z,1.49
2022-12-12T10:22:16.397Z,1.48
2022-12-12T10:23:16.386Z,1.46
2022-12-12T10:24:16.419Z,1.43
2022-12-12T10:25:16.368Z,1.43
2022-12-12T10:26:16.347Z,1.46
2022-12-12T10:27:16.336Z,1.48
2022-12-12T10:28:16.325Z,1.52
2022-12-12T10:29:16.327Z,1.52
2022-12-12T10:30:16.553Z,1.56
2022-12-12T10:31:16.323Z,1.58
2022-12-12T10:32:16.276Z,1.61
2022-12-12T10:33:16.266Z,1.61
2022-12-12T10:34:16.264Z,1.63
2022-12-12T10:35:22.592Z,1.64
2022-12-12T10:36:17.216Z,1.64
2022-12-12T10:37:16.204Z,1.68
2022-12-12T10:38:16.184Z,1.68
2022-12-12T10:39:16.205Z,1.71
2022-12-12T10:40:16.165Z,1.70
2022-12-12T10:41:16.156Z,1.71
2022-12-12T10:42:16.145Z,1.71
2022-12-12T10:43:16.134Z,1.74
2022-12-12T10:44:16.133Z,1.75
2022-12-12T10:45:16.334Z,1.75
2022-12-12T10:46:16.270Z,1.76
2022-12-12T10:47:16.074Z,1.81
2022-12-12T10:48:16.064Z,1.84
2022-12-12T10:49:16.128Z,1.86
2022-12-12T10:50:16.045Z,1.89
2022-12-12T10:51:16.014Z,1.92
2022-12-12T10:52:16.028Z,1.92
2022-12-12T10:53:16.003Z,1.92
2022-12-12T10:54:16.006Z,1.93
2022-12-12T10:55:16.059Z,1.95
2022-12-12T10:56:15.974Z,1.95
2022-12-12T10:57:20.167Z,1.97
2022-12-12T10:58:15.934Z,1.97
2022-12-12T10:59:15.924Z,1.98
2022-12-12T11:00:15.939Z,2.00
2022-12-12T11:01:15.955Z,2.01
2022-12-12T11:02:16.068Z,2.03
2022-12-12T11:03:15.946Z,2.03
2022-12-12T11:04:15.863Z,2.04
2022-12-12T11:05:16.145Z,2.03
2022-12-12T11:06:15.823Z,2.04
2022-12-12T11:07:15.823Z,2.04
2022-12-12T11:08:15.838Z,2.05
2022-12-12T11:09:15.794Z,2.08
2022-12-12T11:10:15.803Z,2.05
2022-12-12T11:11:15.784Z,2.05
2022-12-12T11:12:15.777Z,2.01
2022-12-12T11:13:15.743Z,2.04
2022-12-12T11:14:15.738Z,2.05
2022-12-12T11:15:15.983Z,2.08
2022-12-12T11:16:15.765Z,2.07
2022-12-12T11:17:15.693Z,2.07
2022-12-12T11:18:15.693Z,2.07
2022-12-12T11:19:15.703Z,2.05
2022-12-12T11:20:15.674Z,2.05
2022-12-12T11:21:15.643Z,2.05
2022-12-12T11:22:15.634Z,2.10
2022-12-12T11:23:18.292Z,2.10
2022-12-12T11:24:15.603Z,2.15
2022-12-12T11:25:15.743Z,2.18
2022-12-12T11:26:15.569Z,2.18
2022-12-12T11:27:15.553Z,2.21
2022-12-12T11:28:15.691Z,2.21
2022-12-12T11:29:15.542Z,2.22
2022-12-12T11:30:15.544Z,2.25
2022-12-12T11:31:15.543Z,2.26
2022-12-12T11:32:15.504Z,2.26
2022-12-12T11:33:15.481Z,2.30
2022-12-12T11:34:15.472Z,2.28
2022-12-12T11:35:15.853Z,2.26
2022-12-12T11:36:15.451Z,2.25
2022-12-12T11:37:15.438Z,2.23
2022-12-12T11:38:15.425Z,2.22
2022-12-12T11:39:15.410Z,2.23
2022-12-12T11:40:15.507Z,2.26
2022-12-12T11:41:15.381Z,2.26
2022-12-12T11:42:15.408Z,2.22
2022-12-12T11:43:15.360Z,2.22
2022-12-12T11:44:20.024Z,2.22
2022-12-12T11:45:15.525Z,2.21
2022-12-12T11:46:15.417Z,2.22
2022-12-12T11:47:15.302Z,2.22
2022-12-12T11:48:15.297Z,2.22
2022-12-12T11:49:15.281Z,2.19
2022-12-12T11:50:15.376Z,2.21
2022-12-12T11:51:15.251Z,2.21
2022-12-12T11:52:15.250Z,2.22
2022-12-12T11:53:15.230Z,2.22
2022-12-12T11:54:15.240Z,2.22
2022-12-12T11:55:15.666Z,2.22
2022-12-12T11:56:15.192Z,2.22
2022-12-12T11:57:15.182Z,2.25
2022-12-12T11:58:15.180Z,2.25
2022-12-12T11:59:15.151Z,2.28
2022-12-12T12:00:15.150Z,2.25
2022-12-12T12:01:15.144Z,2.28
2022-12-12T12:02:15.140Z,2.26
2022-12-12T12:03:15.226Z,2.23
2022-12-12T12:04:15.135Z,2.23
2022-12-12T12:05:15.417Z,2.22
2022-12-12T12:06:15.091Z,2.19
2022-12-12T12:07:15.058Z,2.15
2022-12-12T12:08:15.089Z,2.15
2022-12-12T12:09:15.020Z,2.14
2022-12-12T12:10:18.371Z,2.16
2022-12-12T12:11:16.019Z,2.18
2022-12-12T12:12:14.998Z,2.19
2022-12-12T12:13:14.980Z,2.21
2022-12-12T12:14:14.971Z,2.25
2022-12-12T12:15:15.256Z,2.26
2022-12-12T12:16:15.007Z,2.28
2022-12-12T12:17:14.917Z,2.32
2022-12-12T12:18:14.920Z,2.32
2022-12-12T12:19:14.907Z,2.32
2022-12-12T12:20:14.975Z,2.34
2022-12-12T12:21:14.898Z,2.34
2022-12-12T12:22:14.869Z,2.36
2022-12-12T12:23:14.860Z,2.37
2022-12-12T12:24:14.839Z,2.41
2022-12-12T12:25:15.183Z,2.41
2022-12-12T12:26:14.829Z,2.46
2022-12-12T12:27:14.829Z,2.46
2022-12-12T12:28:14.788Z,2.44
2022-12-12T12:29:14.770Z,2.41
2022-12-12T12:30:14.760Z,2.39
2022-12-12T12:31:14.792Z,2.37
2022-12-12T12:32:14.739Z,2.33
2022-12-12T12:33:14.717Z,2.34
2022-12-12T12:34:14.709Z,2.34
2022-12-12T12:35:14.970Z,2.33
2022-12-12T12:36:20.742Z,2.36
2022-12-12T12:37:15.667Z,2.37
2022-12-12T12:38:14.659Z,2.39
2022-12-12T12:39:14.648Z,2.37
2022-12-12T12:40:14.649Z,2.36
2022-12-12T12:41:14.619Z,2.37
2022-12-12T12:42:14.628Z,2.40
2022-12-12T12:43:14.589Z,2.39
2022-12-12T12:44:14.581Z,2.41
2022-12-12T12:45:14.790Z,2.40
2022-12-12T12:46:14.579Z,2.43
2022-12-12T12:47:14.579Z,2.43
2022-12-12T12:48:14.528Z,2.43
2022-12-12T12:49:14.540Z,2.43
2022-12-12T12:50:14.957Z,2.41
2022-12-12T12:51:14.510Z,2.40
2022-12-12T12:52:14.508Z,2.37
2022-12-12T12:53:14.617Z,2.39
2022-12-12T12:54:14.448Z,2.40
2022-12-12T12:55:14.627Z,2.41
2022-12-12T12:56:14.427Z,2.46
2022-12-12T12:57:14.438Z,2.51
2022-12-12T12:58:14.397Z,2.54
2022-12-12T12:59:14.384Z,2.62
2022-12-12T13:00:14.687Z,2.68
2022-12-12T13:01:14.437Z,2.65
2022-12-12T13:02:14.403Z,2.70
2022-12-12T13:03:14.392Z,2.77
2022-12-12T13:04:14.317Z,2.75
2022-12-12T13:05:14.324Z,2.76
2022-12-12T13:06:14.297Z,2.75
2022-12-12T13:07:14.307Z,2.75
2022-12-12T13:08:14.302Z,2.75
2022-12-12T13:09:14.255Z,2.75
2022-12-12T13:10:14.533Z,2.76
2022-12-12T13:11:14.223Z,2.75
2022-12-12T13:12:14.240Z,2.75
2022-12-12T13:13:14.206Z,2.76
2022-12-12T13:14:14.198Z,2.75
2022-12-12T13:15:14.177Z,2.75
2022-12-12T13:16:14.224Z,2.73
2022-12-12T13:17:14.175Z,2.73
2022-12-12T13:18:14.135Z,2.72
2022-12-12T13:19:14.126Z,2.72